NY Terminal Aviation Weather Discussion (AFD) - Prepared: 441 AM EDT FRI JUL 25 2014
HIGH PRESSURE SLOWLY BUILDS IN FROM THE WEST. A WEAK SURFACE
TROUGH DEVELOPS WEST OF NYC IN THE EARLY AFTERNOON.

VFR. MODERATE TO HIGH CONFIDENCE IN WIND FORECASTS.

A LIGHT NLY FLOW CONTINUES THROUGH THE EARLY MORNING HOURS. SEA
BREEZES ARE EXPECTED TO IMPACT ALL COASTAL TERMINALS THIS
AFTN...HOWEVER THE DEVELOPING SFC TROUGH SHOULD BACK WINDS TO WLY
FOR AN HOUR OR TWO AT KEWR/KTEB/KHPN BEFORE THE SEABREEZE MOVES
THROUGH.

5 Day General Aviation Outlook:

.OUTLOOK FOR 06Z SATURDAY THROUGH TUESDAY...
.FRI NIGHT-SAT...VFR.
.SAT NIGHT-MON...VFR WITH A CHANCE OF SHRA/TSTMS WITH MVFR OR
LOWER POSSIBLE.
.TUE...VFR.


NY Metro Terminal Aviation Weather Summary: (Explanation of Color Coding)
NOTE: All Wind Directions are TRUE (add 13 degrees for magnetic directions). Tail and Crosswind Calculations do account for the magnetic deviation of runways.

Click on the Airport Below for Specific Information at that Terminal

TAF Overview JFK TAF LGA TAF EWR TAF TEB TAF HPN TAF ISP TAF

Jump to AirSpace Impacts Section Condensed "lite" version of SPA page
**************************************************************************************
KJFK Terminal Weather: (Wind Directions Are True, Except Where Noted, ADD 13 degrees for Magnetic)

5MIN KJFK 250850Z 35009KT 10SM FEW075 BKN250 20/12 
     A2996 -10 60 600 010/09 RMK AO2 SLP144 T02000122 53008 $
5MIN KJFK 250845Z 35009KT 10SM FEW075 BKN250 20/12 
     A2996 -20 60 600 010/09 RMK AO2 SLP145 T02000122 53008 $
********************************************
****        MAGNETIC DIRECTIONS         ****
********************************************
KJFK 07/25/2014 09:05:34 GMT 010 10 KT
KJFK 07/25/2014 09:03:34 GMT 010 10 KT
KJFK 07/25/2014 09:01:34 GMT 010 12 KT
KJFK 07/25/2014 08:59:34 GMT 010 10 KT
KJFK 07/25/2014 08:57:34 GMT 010 11 KT
KJFK 07/25/2014 08:55:34 GMT 360 11 KT
KJFK 07/25/2014 08:53:34 GMT 360 11 KT
KJFK 07/25/2014 08:51:34 GMT 360 13 KT
KJFK 07/25/2014 08:49:34 GMT 360 12 KT
KJFK 07/25/2014 08:47:34 GMT 360 12 KT
SAUS70 KJFK 250900 RRC
METAR KJFK 250851Z 36010KT 10SM FEW075 BKN250 20/12 A2996 RMK AO2 SLP143
     T02000122 51009 $
FTNA35 KJFK 250834 RRB
KJFK 250830Z 2509/2612 01009KT P6SM SCT070 SCT250
     FM251700 19011KT P6SM FEW050
     FM260300 21008KT P6SM FEW250
KJFK FCSTER COMMENTS: SEABREEZE EXPECTED TO IMPACT AIRFIELD
BETWEEN 16Z AND 18Z.

jfk

JFK Hourly Forecast Temperature (C)

JFK Hourly TMPS
**************************************************************************************
KLGA Terminal Weather: (Wind Directions Are True, Except Where Noted, ADD 13 degrees for Magnetic)

5MIN KLGA 250850Z 01006KT 10SM SCT070 SCT250 20/12 
     A2995 0 60 600 030/06 RMK AO2 SLP142 T02000122 53008
5MIN KLGA 250845Z 01009KT 10SM SCT075 SCT250 20/12 
     A2995 0 58 600 020/09 RMK AO2 SLP142 T02000117 53008
********************************************
****        MAGNETIC DIRECTIONS         ****
********************************************
KLGA 07/25/2014 09:05:57 GMT 040 08 KT
KLGA 07/25/2014 09:03:57 GMT 030 10 KT
KLGA 07/25/2014 09:01:58 GMT 030 10 KT
KLGA 07/25/2014 08:59:58 GMT 040 11 KT
KLGA 07/25/2014 08:57:57 GMT 030 09 KT
KLGA 07/25/2014 08:55:57 GMT 030 11 KT
KLGA 07/25/2014 08:53:57 GMT 030 12 KT
KLGA 07/25/2014 08:51:58 GMT 030 14 KT
KLGA 07/25/2014 08:49:57 GMT 040 13 KT
KLGA 07/25/2014 08:47:58 GMT 040 13 KT
SAUS70 KLGA 250900 RRA
METAR KLGA 250851Z 02006KT 10SM SCT070 SCT250 20/12 A2995 RMK AO2 SLP142
     T02000122 51011
FTUS31 KLGA 250833 AAA
KLGA 250830Z 2509/2606 01007KT P6SM SCT080 SCT250
     FM252000 18010KT P6SM FEW050
     FM260200 21007KT P6SM FEW250
KLGA FCSTER COMMENTS: SEABREEZE EXPECTED TO IMPACT AIRFIELD
BETWEEN 19Z AND 21Z.

lga


**************************************************************************************

KEWR Terminal Weather: (Wind Directions Are True, Except Where Noted, ADD 13 degrees for Magnetic)

5MIN KEWR 250900Z 36007KT 10SM BKN065 BKN250 19/12 
     A2995 -10 65 500 020/07 RMK AO2
5MIN KEWR 250855Z 01007KT 10SM BKN065 BKN250 19/12 
     A2996 -10 65 500 020/07 RMK AO2
********************************************
****        MAGNETIC DIRECTIONS         ****
********************************************
KEWR 07/25/2014 09:04:57 GMT 010 07 KT
KEWR 07/25/2014 09:02:57 GMT 010 08 KT
KEWR 07/25/2014 09:00:58 GMT 020 07 KT
KEWR 07/25/2014 08:59:58 GMT 020 08 KT
KEWR 07/25/2014 08:56:58 GMT 020 08 KT
KEWR 07/25/2014 08:54:58 GMT 010 07 KT
KEWR 07/25/2014 08:53:58 GMT 020 05 KT
KEWR 07/25/2014 08:50:58 GMT 020 08 KT
KEWR 07/25/2014 08:48:58 GMT 020 09 KT
KEWR 07/25/2014 08:46:58 GMT 020 07 KT
SAUS70 KEWR 250900
METAR KEWR 250851Z 01008KT 10SM BKN065 BKN250 19/12 A2996 RMK AO2 SLP143
     T01940117 51009
FTUS31 KEWR 250833 AAA
KEWR 250830Z 2509/2612 35008KT P6SM SCT070 SCT250
     FM251800 30007KT P6SM FEW050
     FM252000 15009KT P6SM FEW050
     FM260200 22006KT P6SM FEW250
KEWR FCSTER COMMENTS: SEABREEZE EXPECTED TO IMPACT AIRFIELD
BETWEEN 19Z AND 21Z.

ewr
Afternoon EWR Haze Potential Forecast: green
THE AFTERNOON KEWR HAZE POTENTIAL FORECAST IS GREEN...WHICH
IMPLIES  SLANT RANGE VISIBILITY 7SM OR GREATER OUTSIDE OF CLOUD.


******************************************************************************

KTEB Terminal Weather:
SAUS80 KTEB 250900
METAR KTEB 250851Z 32004KT 10SM SCT065 19/12 A2995 RMK AO2 SLP141
     T01940117 51007
FTUS31 KTEB 250833 AAA
KTEB 250830Z 2509/2606 35004KT P6SM SCT070 SCT250
     FM251900 29007KT P6SM FEW050
     FM252100 18009KT P6SM FEW050
     FM260100 21005KT P6SM FEW250
KTEB FCSTER COMMENTS: SEABREEZE EXPECTED TO IMPACT AIRFIELD
BETWEEN 20Z AND 22Z.

teb

 


**************************************************************************************

KHPN Terminal Weather:
SAUS70 KHPN 250900 RRB
METAR KHPN 250856Z 36009KT 10SM BKN070 17/11 A2996 RMK AO2 SLP140
     T01720111 51008
FTUS80 KHPN 250533 RRA
KHPN 250529Z 2506/2606 34007KT P6SM SCT070 BKN250
     FM251700 30006KT P6SM FEW050
     FM251900 18008KT P6SM FEW050
     FM260000 VRB03KT P6SM FEW250 AMD NOT SKED
KHPN FCSTER COMMENTS: SEABREEZE EXPECTED TO IMPACT AIRFIELD
BETWEEN 18Z AND 20Z.

HPN


******************************************************************************

KISP Terminal Weather:
SAUS70 KISP 250900 RRB
METAR KISP 250856Z AUTO 35006KT 10SM CLR 19/13 A2993 RMK AO2 SLP135
     T01940133 51013
FTUS51 KISP 250833 AAA
KISP 250830Z 2509/2606 35008KT P6SM SCT070 SCT250
     FM251800 22010KT P6SM FEW050
     FM260000 22007KT P6SM FEW250
KISP FCSTER COMMENTS: SEABREEZE EXPECTED TO IMPACT AIRFIELD
BETWEEN 17Z AND 19Z.

ISP

 


ZNY SWAP Season Information

(ZNY SWAP STATEMENT) (Click for PDF File) (ZNY BRIEFING) (Click for PDF File)

*******************************************************
***        NY AIR ROUTE TRAFFIC CONTROL CENTER      ***
***                DAILY SWAP STATEMENT             ***
*******************************************************
NY AIR ROUTE TRAFFIC CONTROL CENTER
DAILY SWAP STATEMENT
WEDNESDAY, JULY 23, 2014
SWAP IS EXPECTED AFTER 17Z.
BROKEN TS LINE WILL DVLP EARLY THIS AFTN FROM WRN ZBW 
THRU WRN ZNY/ERN ZOB AND SW INTO ZDC/ZID. TS LINE WILL MOVE E THRU 
ZNY REACHING N90/PHL ARPTS AFT 22Z. AHEAD OF TS LINE...SCT TS WL 
FORM WITHIN ZNY AIRSPACE AND MAY OCNL ENTER N90.  MOST SGFNT IMPACTS 
J95/Q436 THRU Q42/Q480 INITIALLY BEFORE TS MOVE E ACROSS REMAINING 
ROUTES.

ADDT'L INFO:
AZEZU-PAEPR-HANRI(L453-M201):  NMRS TS WL CONT FM PAEPR S THRU EARLY 
AFTN. TS WL BEC MORE ISOLD-SCT LATE IN DAY. 
DITCH:  IMPACTS EXPECTED AFT 22Z.
EAST GATES: IMPACTS EXPECTED AFT 22Z.
TOMORROW MORNINGS SWAP OUTLOOK:  SWAP IS POSSIBLE.

$$
GS


N90 AirSpace Impacts

N90 ZNY Gate TSTM Forecast    SWAP Day One Forecast

SWAP Day One Forecast    SWAP Day Two Outlook

National Collaborative Convective Forecast Product (CCFP) Forecasts (Mar-Oct)


Vertical Wind Profile
Untitled Document